Time;durP1;ratioP1;P1;durP2;ratioP2;P2;SDS_P1;SDS_P2;PMS_P1;PMS_P2;Temp;Humidity;BMP_temperature;BMP_pressure;BME280_temperature;BME280_humidity;BME280_pressure;Samples;Min_cycle;Max_cycle;Signal;HPM_P1;HPM_P2
2023/01/31 00:00:49;;;;;;;6.32;2.50;;;;;;;17.74;40.17;102249.59;5018982;28;20111;-58
2023/01/31 00:03:14;;;;;;;3.97;2.05;;;;;;;17.79;39.97;102266.19;5022431;28;20490;-61
2023/01/31 00:05:39;;;;;;;4.82;2.08;;;;;;;17.78;40.00;102272.56;5022408;28;20057;-59
2023/01/31 00:08:05;;;;;;;6.15;2.70;;;;;;;17.79;39.86;102276.09;5021344;28;20049;-58
2023/01/31 00:10:30;;;;;;;5.53;2.22;;;;;;;17.78;40.17;102283.31;5020188;28;20507;-58
2023/01/31 00:12:56;;;;;;;4.85;2.45;;;;;;;17.78;40.09;102283.31;5022548;28;20033;-59
2023/01/31 00:15:21;;;;;;;4.70;2.15;;;;;;;17.77;39.96;102276.25;5023727;28;20034;-59
2023/01/31 00:17:47;;;;;;;4.70;2.40;;;;;;;17.77;39.99;102272.69;5024148;28;20036;-59
2023/01/31 00:20:12;;;;;;;3.63;2.10;;;;;;;17.77;39.93;102270.84;5021190;28;20133;-58
2023/01/31 00:22:37;;;;;;;5.55;2.22;;;;;;;17.75;40.11;102270.13;5018009;28;20065;-57
2023/01/31 00:25:03;;;;;;;5.30;2.15;;;;;;;17.74;40.00;102274.63;5015909;28;20042;-58
2023/01/31 00:27:29;;;;;;;6.10;2.70;;;;;;;17.70;39.92;102262.41;5023738;28;20484;-59
2023/01/31 00:29:54;;;;;;;5.38;2.00;;;;;;;17.71;40.42;102255.19;5020940;28;20065;-57
2023/01/31 00:32:19;;;;;;;6.53;2.78;;;;;;;17.72;40.21;102262.28;5026322;28;20037;-59
2023/01/31 00:34:44;;;;;;;4.18;2.53;;;;;;;17.69;40.08;102262.53;5021665;28;20036;-58
2023/01/31 00:37:10;;;;;;;4.10;1.95;;;;;;;17.70;39.96;102254.31;5023850;28;20117;-59
2023/01/31 00:39:35;;;;;;;3.70;1.77;;;;;;;17.69;40.17;102251.78;5021389;28;20026;-59
2023/01/31 00:42:00;;;;;;;5.40;2.22;;;;;;;17.68;40.18;102248.22;5025859;28;20435;-58
2023/01/31 00:44:26;;;;;;;5.00;2.10;;;;;;;17.68;40.22;102252.75;5025628;28;20029;-57
2023/01/31 00:46:51;;;;;;;3.85;1.98;;;;;;;17.67;39.94;102256.41;5025825;28;20418;-59
2023/01/31 00:49:16;;;;;;;8.68;3.08;;;;;;;17.66;39.88;102252.88;5024068;28;20026;-57
2023/01/31 00:51:43;;;;;;;4.88;2.28;;;;;;;17.66;40.00;102252.03;5024644;28;20126;-59
2023/01/31 00:54:08;;;;;;;4.18;2.00;;;;;;;17.65;40.36;102244.94;5021576;28;20534;-58
2023/01/31 00:56:34;;;;;;;4.32;2.03;;;;;;;17.65;40.11;102250.31;5021686;28;20026;-59
2023/01/31 00:58:59;;;;;;;4.30;2.13;;;;;;;17.64;39.94;102243.25;5021741;28;20094;-57
2023/01/31 01:01:27;;;;;;;5.90;2.85;;;;;;;17.63;39.99;102237.00;5025800;28;20025;-58
2023/01/31 01:03:53;;;;;;;4.70;2.05;;;;;;;17.62;39.98;102234.44;5003954;28;20098;-59
2023/01/31 01:06:19;;;;;;;6.07;2.75;;;;;;;17.61;40.01;102236.28;5021305;28;20038;-59
2023/01/31 01:08:44;;;;;;;4.50;2.00;;;;;;;17.60;39.99;102233.72;4999490;28;20582;-59
2023/01/31 01:11:15;;;;;;;4.68;2.03;;;;;;;17.54;39.97;102224.31;5025586;28;20034;-59
2023/01/31 01:13:41;;;;;;;3.47;1.95;;;;;;;17.58;39.95;102219.53;5024945;28;20037;-57
2023/01/31 01:16:15;;;;;;;5.20;2.00;;;;;;;17.57;40.01;102226.75;5025108;28;20554;-59
2023/01/31 01:18:43;;;;;;;4.80;2.20;;;;;;;17.56;39.90;102218.81;5021010;28;20094;-59
2023/01/31 01:21:12;;;;;;;4.53;2.30;;;;;;;17.55;40.02;102228.72;5019921;28;20044;-59
2023/01/31 01:23:38;;;;;;;4.85;2.10;;;;;;;17.56;40.13;102232.25;5020902;28;20053;-57
2023/01/31 01:26:04;;;;;;;3.72;2.00;;;;;;;17.55;40.17;102227.88;5020710;28;20082;-59
2023/01/31 01:28:32;;;;;;;3.55;2.13;;;;;;;17.44;40.17;102213.47;5016696;28;20060;-59
2023/01/31 01:30:58;;;;;;;4.38;1.83;;;;;;;17.52;39.92;102222.75;5024962;28;20332;-60
2023/01/31 01:33:23;;;;;;;3.05;1.90;;;;;;;17.52;40.18;102233.50;5025118;28;20036;-61
2023/01/31 01:35:49;;;;;;;5.75;2.20;;;;;;;17.51;40.02;102231.81;5024917;28;20024;-59
2023/01/31 01:38:14;;;;;;;4.38;1.98;;;;;;;17.48;40.13;102235.59;5022356;28;20041;-58
2023/01/31 01:40:39;;;;;;;4.10;2.10;;;;;;;17.48;39.95;102230.22;5019893;28;20030;-59
2023/01/31 01:43:04;;;;;;;4.60;1.98;;;;;;;17.44;39.93;102232.28;5020605;28;20046;-59
2023/01/31 01:45:30;;;;;;;4.13;2.20;;;;;;;17.47;40.12;102244.63;5024623;28;20101;-59
2023/01/31 01:47:58;;;;;;;3.60;1.98;;;;;;;17.48;39.95;102249.03;5021489;28;20133;-55
2023/01/31 01:50:31;;;;;;;4.90;2.40;;;;;;;17.47;39.99;102244.63;5013261;28;20037;-57
2023/01/31 01:53:18;;;;;;;4.93;3.13;;;;;;;17.46;40.02;102240.25;5017834;28;20070;-59
2023/01/31 01:55:56;;;;;;;6.43;2.70;;;;;;;17.45;40.25;102238.53;5000280;28;20057;-59
2023/01/31 01:58:30;;;;;;;5.93;2.17;;;;;;;17.44;40.20;102242.19;5000409;28;20037;-56
2023/01/31 02:00:55;;;;;;;5.03;2.22;;;;;;;17.44;39.54;102250.25;5007312;28;20085;-52
2023/01/31 02:03:21;;;;;;;4.38;2.00;;;;;;;17.43;40.00;102257.47;5020348;28;20026;-59
2023/01/31 02:05:52;;;;;;;5.38;2.35;;;;;;;17.43;40.23;102244.03;5019876;28;20034;-59
2023/01/31 02:08:19;;;;;;;4.30;1.95;;;;;;;17.42;40.23;102245.03;5006427;28;20030;-59
2023/01/31 02:10:58;;;;;;;5.10;2.03;;;;;;;17.42;40.15;102244.16;5023829;28;20038;-60
2023/01/31 02:13:24;;;;;;;4.05;2.00;;;;;;;17.40;40.05;102238.91;5003086;28;20631;-56
2023/01/31 02:15:49;;;;;;;4.28;2.00;;;;;;;17.39;40.06;102245.25;4986840;28;20105;-60
2023/01/31 02:18:15;;;;;;;5.35;1.95;;;;;;;17.39;39.95;102245.25;5018040;28;20732;-61
2023/01/31 02:20:40;;;;;;;3.28;1.80;;;;;;;17.39;40.21;102237.19;5003941;28;20028;-60
2023/01/31 02:23:29;;;;;;;4.60;1.83;;;;;;;17.38;40.09;102232.81;5018259;28;20618;-60
2023/01/31 02:26:30;;;;;;;4.15;2.05;;;;;;;17.37;40.12;102225.69;4995427;28;20027;-56
2023/01/31 02:28:58;;;;;;;3.92;2.10;;;;;;;17.37;40.13;102225.69;5016635;28;20034;-57
2023/01/31 02:31:34;;;;;;;6.63;2.90;;;;;;;17.36;40.11;102224.00;5020727;28;20049;-60
2023/01/31 02:34:26;;;;;;;4.45;1.92;;;;;;;17.36;40.00;102209.72;5005937;28;20034;-59
2023/01/31 02:37:14;;;;;;;3.42;2.13;;;;;;;17.35;40.07;102206.16;5018438;28;20049;-58
2023/01/31 02:40:10;;;;;;;4.35;2.20;;;;;;;17.34;39.98;102204.47;5018623;28;20034;-59
2023/01/31 02:42:47;;;;;;;4.22;2.10;;;;;;;17.34;40.08;102207.16;4997579;28;20045;-60
2023/01/31 02:45:18;;;;;;;5.25;2.10;;;;;;;17.33;40.19;102202.78;5015402;28;20018;-59
2023/01/31 02:48:07;;;;;;;4.88;2.20;;;;;;;17.31;40.13;102196.66;5004637;28;20033;-59
2023/01/31 02:50:51;;;;;;;3.22;1.90;;;;;;;17.32;40.08;102195.66;5002241;28;20037;-59
2023/01/31 02:53:24;;;;;;;4.57;2.15;;;;;;;17.32;40.32;102184.06;5020799;28;20042;-59
2023/01/31 02:58:44;;;;;;;3.50;2.20;;;;;;;17.29;40.17;102182.50;5004086;28;20033;-57
2023/01/31 03:01:12;;;;;;;5.30;1.77;;;;;;;17.30;40.19;102181.50;5019616;28;20041;-59
2023/01/31 03:03:38;;;;;;;3.67;1.95;;;;;;;17.22;39.91;102162.47;5001418;28;20030;-59
2023/01/31 03:06:13;;;;;;;5.20;1.73;;;;;;;17.28;40.08;102167.31;5015208;28;20080;-58
2023/01/31 03:08:41;;;;;;;5.97;2.00;;;;;;;17.28;40.23;102163.78;5020016;28;20051;-58
2023/01/31 03:11:07;;;;;;;3.28;1.80;;;;;;;17.21;40.19;102148.19;5023214;28;20053;-59
2023/01/31 03:13:53;;;;;;;2.72;1.58;;;;;;;17.26;40.06;102155.88;5001716;28;20033;-58
2023/01/31 03:19:47;;;;;;;4.22;2.05;;;;;;;17.27;40.06;102171.00;5003774;28;20096;-59
2023/01/31 03:22:16;;;;;;;5.75;2.00;;;;;;;17.26;40.04;102172.00;5018720;28;20045;-59
2023/01/31 03:24:43;;;;;;;5.32;1.98;;;;;;;17.26;40.13;102174.69;5005451;28;20502;-59
2023/01/31 03:27:10;;;;;;;4.10;1.90;;;;;;;17.25;40.04;102164.91;5000954;28;20042;-59
2023/01/31 03:29:37;;;;;;;3.83;1.80;;;;;;;17.25;40.06;102170.28;5022579;28;20023;-59
2023/01/31 03:32:11;;;;;;;4.32;2.00;;;;;;;17.21;40.05;102158.94;5005648;28;20022;-59
2023/01/31 03:34:36;;;;;;;3.05;1.60;;;;;;;17.23;39.99;102156.13;5001343;28;20030;-58
2023/01/31 03:37:10;;;;;;;4.22;2.13;;;;;;;17.25;40.05;102172.97;5000593;28;20028;-59
2023/01/31 03:39:43;;;;;;;3.65;2.00;;;;;;;17.24;40.12;102169.41;5003945;28;20383;-57
2023/01/31 03:42:23;;;;;;;5.63;2.28;;;;;;;17.23;39.96;102167.72;5005238;28;20061;-60
2023/01/31 03:45:08;;;;;;;3.42;1.75;;;;;;;17.23;40.06;102174.94;5005432;28;20061;-59
2023/01/31 03:47:41;;;;;;;4.07;1.73;;;;;;;17.23;39.93;102175.78;5017078;28;20019;-58
2023/01/31 03:50:28;;;;;;;4.18;1.92;;;;;;;17.23;40.01;102172.25;4993094;28;20030;-59
2023/01/31 03:53:06;;;;;;;3.83;1.80;;;;;;;17.21;39.87;102167.00;5001773;28;20042;-59
2023/01/31 03:55:55;;;;;;;5.33;1.97;;;;;;;17.22;39.93;102168.69;5001768;28;20022;-59
2023/01/31 03:58:24;;;;;;;6.32;2.28;;;;;;;17.22;39.99;102167.84;5004438;28;20275;-59
2023/01/31 04:00:51;;;;;;;4.53;2.17;;;;;;;17.21;40.01;102168.84;5004337;28;20112;-59
2023/01/31 04:03:25;;;;;;;5.82;2.15;;;;;;;17.15;40.14;102155.88;5001077;28;20097;-54
2023/01/31 04:05:51;;;;;;;3.83;1.80;;;;;;;17.20;40.02;102154.56;5022394;28;20073;-59
2023/01/31 04:08:16;;;;;;;3.85;1.75;;;;;;;17.21;40.09;102152.72;5022090;28;20083;-60
2023/01/31 04:10:41;;;;;;;4.45;1.95;;;;;;;17.21;39.94;102158.09;4996859;28;20033;-59
2023/01/31 04:13:07;;;;;;;3.95;1.70;;;;;;;17.20;39.91;102154.56;5005098;28;20032;-59
2023/01/31 04:15:32;;;;;;;5.22;2.22;;;;;;;17.19;39.92;102142.06;5014687;28;20054;-59
2023/01/31 04:17:57;;;;;;;3.95;2.05;;;;;;;17.19;39.90;102141.22;5022275;28;20040;-59
2023/01/31 04:20:23;;;;;;;4.45;1.83;;;;;;;17.19;39.80;102138.53;5014471;28;20030;-58
2023/01/31 04:22:48;;;;;;;3.63;1.70;;;;;;;17.20;40.06;102137.53;5021979;28;20506;-59
2023/01/31 04:25:13;;;;;;;3.55;1.58;;;;;;;17.19;39.95;102133.16;5022108;28;20037;-59
2023/01/31 04:27:38;;;;;;;4.70;2.10;;;;;;;17.19;40.03;102125.09;5018156;28;20030;-60
2023/01/31 04:30:05;;;;;;;5.53;2.38;;;;;;;17.20;40.18;102130.38;5018262;28;20033;-59
2023/01/31 04:32:30;;;;;;;3.72;1.80;;;;;;;17.18;40.02;102113.50;5018382;28;20022;-60
2023/01/31 04:34:56;;;;;;;4.45;2.15;;;;;;;17.17;40.13;102114.47;5018659;28;20034;-60
2023/01/31 04:37:21;;;;;;;5.32;1.95;;;;;;;17.16;39.89;102111.91;5014558;28;20030;-59
2023/01/31 04:39:46;;;;;;;4.22;1.75;;;;;;;17.18;40.02;102109.97;5020917;28;20084;-60
2023/01/31 04:42:12;;;;;;;5.18;2.15;;;;;;;17.18;39.83;102120.72;5022067;28;20050;-60
2023/01/31 04:44:37;;;;;;;5.00;1.80;;;;;;;17.18;39.96;102109.97;5022045;28;20541;-59
2023/01/31 04:47:02;;;;;;;6.80;1.90;;;;;;;17.18;40.00;102107.28;5021724;28;20030;-59
2023/01/31 04:49:27;;;;;;;3.63;1.77;;;;;;;17.13;39.96;102102.28;5022037;28;20033;-60
2023/01/31 04:51:53;;;;;;;5.38;2.33;;;;;;;17.12;39.85;102105.06;5018823;28;20036;-59
2023/01/31 04:54:18;;;;;;;4.55;2.50;;;;;;;17.13;39.95;102090.69;5019638;28;20053;-59
2023/01/31 04:56:43;;;;;;;5.35;2.03;;;;;;;17.16;39.81;102087.72;5021777;28;20041;-60
2023/01/31 04:59:09;;;;;;;6.13;2.97;;;;;;;17.16;39.98;102091.28;5021968;28;20044;-59
2023/01/31 05:01:34;;;;;;;5.45;2.10;;;;;;;17.16;40.03;102082.34;5020203;28;20038;-59
2023/01/31 05:03:59;;;;;;;4.70;2.30;;;;;;;17.15;39.91;102064.53;5024959;28;20030;-53
2023/01/31 05:06:24;;;;;;;7.65;2.58;;;;;;;17.16;39.96;102074.28;5018347;28;20040;-58
2023/01/31 05:08:53;;;;;;;4.63;2.75;;;;;;;17.17;39.94;102073.31;5020999;28;20045;-59
2023/01/31 05:11:18;;;;;;;5.55;2.72;;;;;;;17.10;39.84;102064.06;5021808;28;20026;-59
2023/01/31 05:13:44;;;;;;;7.20;2.78;;;;;;;17.11;40.03;102052.31;5025145;28;20073;-58
2023/01/31 05:16:10;;;;;;;8.52;3.67;;;;;;;17.15;39.83;102064.53;5025031;28;20030;-58
2023/01/31 05:18:36;;;;;;;5.88;3.45;;;;;;;17.16;39.85;102060.84;5024970;28;20029;-58
2023/01/31 05:21:03;;;;;;;5.60;3.25;;;;;;;17.15;39.70;102051.94;5023927;28;20022;-59
2023/01/31 05:23:29;;;;;;;8.43;3.58;;;;;;;17.16;39.91;102061.72;5022236;28;20026;-59
2023/01/31 05:25:55;;;;;;;7.93;3.85;;;;;;;17.15;39.91;102051.94;5003100;28;20026;-60
2023/01/31 05:28:20;;;;;;;9.88;4.07;;;;;;;17.16;39.82;102045.59;5017076;28;20025;-59
2023/01/31 05:30:46;;;;;;;9.25;4.00;;;;;;;17.16;39.94;102050.97;5017506;28;20038;-60
2023/01/31 05:33:11;;;;;;;7.93;3.97;;;;;;;17.16;40.47;102028.59;5016073;28;20018;-60
2023/01/31 05:37:30;;;;;;;11.05;4.25;;;;;;;17.71;38.68;102048.94;5119362;27;20946;-57
2023/01/31 05:39:56;;;;;;;8.68;4.22;;;;;;;18.01;37.81;102046.41;5118552;28;20027;-58
2023/01/31 05:42:21;;;;;;;9.70;3.85;;;;;;;18.31;37.19;102049.09;5119410;28;20034;-55
2023/01/31 05:44:46;;;;;;;8.52;4.07;;;;;;;18.58;36.44;102047.59;5119158;28;20042;-55
2023/01/31 05:47:11;;;;;;;14.77;4.32;;;;;;;18.79;36.38;102034.03;5119092;28;20028;-59
2023/01/31 05:49:37;;;;;;;8.98;4.18;;;;;;;18.99;35.85;102041.16;5119437;28;20031;-58
2023/01/31 05:52:02;;;;;;;9.13;4.45;;;;;;;19.14;35.65;102038.88;5119120;28;20110;-58
2023/01/31 05:54:27;;;;;;;7.63;4.10;;;;;;;19.24;35.17;102031.63;5118902;28;20089;-55
2023/01/31 05:56:52;;;;;;;9.30;4.03;;;;;;;19.32;35.20;102031.75;5118558;28;20031;-56
2023/01/31 05:59:18;;;;;;;9.32;4.40;;;;;;;19.38;34.79;102041.13;5118462;28;20504;-56
2023/01/31 06:01:43;;;;;;;12.55;4.90;;;;;;;19.41;35.06;102032.72;5119347;28;20034;-53
2023/01/31 06:04:09;;;;;;;9.35;4.90;;;;;;;19.39;35.25;102023.94;5118615;28;20028;-56
2023/01/31 06:06:34;;;;;;;9.30;4.85;;;;;;;19.28;34.93;102005.22;5118346;28;20032;-57
2023/01/31 06:08:59;;;;;;;10.07;5.22;;;;;;;19.51;35.05;102033.56;5115503;28;20037;-54
2023/01/31 06:11:25;;;;;;;11.43;5.75;;;;;;;19.53;34.87;102036.97;5118517;28;20073;-55
2023/01/31 06:13:50;;;;;;;10.02;4.93;;;;;;;19.56;35.04;102033.97;5117453;28;20042;-57
2023/01/31 06:16:15;;;;;;;8.20;5.38;;;;;;;19.56;34.79;102033.97;5116533;28;20059;-57
2023/01/31 06:18:41;;;;;;;9.70;5.03;;;;;;;19.60;34.77;102030.00;5118664;28;20020;-57
2023/01/31 06:21:06;;;;;;;9.63;5.40;;;;;;;19.61;35.13;102033.56;5118987;28;20022;-57
2023/01/31 06:23:33;;;;;;;10.82;5.65;;;;;;;19.62;34.96;102037.97;5118747;28;20028;-57
2023/01/31 06:25:58;;;;;;;9.93;5.70;;;;;;;19.59;34.83;102017.50;5118511;28;20026;-58
2023/01/31 06:28:24;;;;;;;14.38;6.85;;;;;;;19.63;35.13;102026.22;5116141;28;20032;-54
2023/01/31 06:30:49;;;;;;;13.25;5.80;;;;;;;19.61;34.82;102018.22;5118178;28;20024;-57
2023/01/31 06:33:14;;;;;;;12.75;6.28;;;;;;;19.64;34.96;102014.41;5118731;28;20035;-57
2023/01/31 06:35:40;;;;;;;10.45;5.35;;;;;;;19.64;35.08;102006.31;5117754;28;20102;-57
2023/01/31 06:38:06;;;;;;;9.98;5.07;;;;;;;19.57;34.75;101997.06;5117300;28;20361;-57
2023/01/31 06:40:32;;;;;;;13.05;5.50;;;;;;;19.65;35.26;102010.69;5117763;28;20042;-54
2023/01/31 06:42:58;;;;;;;10.85;5.20;;;;;;;19.66;34.82;102010.53;5118746;28;20105;-53
2023/01/31 06:45:23;;;;;;;12.60;5.47;;;;;;;19.67;34.91;102019.53;5118263;28;20062;-55
2023/01/31 06:47:48;;;;;;;8.98;4.57;;;;;;;19.68;35.14;102018.50;5108945;28;20024;-57
2023/01/31 06:50:14;;;;;;;8.68;4.70;;;;;;;19.70;34.78;102013.81;5104288;28;20512;-56
2023/01/31 06:52:40;;;;;;;10.70;5.00;;;;;;;19.72;34.85;102004.59;5104884;28;20039;-56
2023/01/31 06:55:06;;;;;;;8.77;4.22;;;;;;;19.75;34.96;102013.38;5104190;28;20056;-58
2023/01/31 06:57:31;;;;;;;11.45;5.18;;;;;;;19.66;34.80;101990.81;5103527;28;20057;-53
2023/01/31 06:59:57;;;;;;;9.57;4.55;;;;;;;19.75;34.78;101995.31;5104039;28;20035;-57
2023/01/31 07:02:22;;;;;;;11.68;5.63;;;;;;;19.77;35.39;102000.59;5100739;28;21127;-52
2023/01/31 07:04:47;;;;;;;10.60;4.93;;;;;;;19.77;35.20;102003.28;5098768;28;20032;-57
2023/01/31 07:07:12;;;;;;;8.90;4.88;;;;;;;19.66;35.12;101991.66;5103806;28;20076;-55
2023/01/31 07:09:38;;;;;;;15.55;6.63;;;;;;;19.70;35.44;102000.31;5105693;28;20393;-57
2023/01/31 07:12:03;;;;;;;9.10;4.72;;;;;;;19.67;35.38;101992.53;5106088;28;20027;-56
2023/01/31 07:14:29;;;;;;;9.73;5.05;;;;;;;19.66;35.19;101986.25;5105975;28;20020;-56
2023/01/31 07:16:54;;;;;;;10.32;4.10;;;;;;;19.66;35.12;101982.72;5106793;28;20027;-55
2023/01/31 07:19:19;;;;;;;12.25;5.80;;;;;;;19.67;35.51;101982.59;5106594;28;20148;-56
2023/01/31 07:21:46;;;;;;;9.80;4.70;;;;;;;19.68;35.11;101976.19;5108990;28;20012;-56
2023/01/31 07:24:11;;;;;;;11.45;4.43;;;;;;;19.67;35.03;101966.41;5105539;28;20031;-52
2023/01/31 07:26:36;;;;;;;13.20;4.35;;;;;;;19.69;35.03;101968.94;5114131;28;20412;-56
2023/01/31 07:29:02;;;;;;;10.32;4.35;;;;;;;19.70;35.03;101970.63;5106362;28;20032;-53
2023/01/31 07:31:27;;;;;;;9.60;4.97;;;;;;;19.70;35.11;101978.72;5106124;28;20024;-54
2023/01/31 07:33:53;;;;;;;11.52;4.85;;;;;;;19.70;35.27;101976.88;5116529;28;20023;-55
2023/01/31 07:36:21;;;;;;;10.82;4.53;;;;;;;19.71;35.21;101975.91;5123246;28;20044;-53
2023/01/31 07:38:47;;;;;;;10.10;4.10;;;;;;;19.70;35.19;101965.25;5122602;28;20023;-53
2023/01/31 07:41:12;;;;;;;12.23;4.78;;;;;;;19.72;35.15;101958.72;5105149;28;20028;-55
2023/01/31 07:43:37;;;;;;;10.82;4.60;;;;;;;19.68;35.00;101949.22;5105959;28;20027;-56
2023/01/31 07:46:08;;;;;;;10.48;4.38;;;;;;;19.73;35.35;101956.84;5106011;28;20016;-53
2023/01/31 07:48:33;;;;;;;15.38;5.10;;;;;;;19.75;35.19;101957.53;5105700;28;20040;-54
2023/01/31 07:50:59;;;;;;;10.30;4.80;;;;;;;19.76;34.98;101961.97;5105573;28;20058;-51
2023/01/31 07:53:30;;;;;;;13.27;4.80;;;;;;;19.73;35.01;101954.16;5105987;28;20032;-54
2023/01/31 07:56:04;;;;;;;10.02;4.72;;;;;;;19.79;34.94;101958.94;5105469;28;20024;-54
2023/01/31 07:58:30;;;;;;;10.52;4.25;;;;;;;19.78;35.18;101949.16;5103680;28;20035;-54
2023/01/31 08:03:40;;;;;;;13.15;4.95;;;;;;;19.82;34.74;101937.06;5104971;28;20050;-54
2023/01/31 08:06:07;;;;;;;13.57;4.50;;;;;;;19.82;35.20;101937.06;5105119;28;20051;-55
2023/01/31 08:08:34;;;;;;;12.27;4.70;;;;;;;19.83;34.74;101941.47;5111926;28;20029;-53
2023/01/31 08:10:59;;;;;;;9.38;4.07;;;;;;;19.84;34.83;101948.56;5105116;28;20016;-56
2023/01/31 08:13:25;;;;;;;14.82;5.90;;;;;;;19.84;35.04;101931.53;5105316;28;20533;-55
2023/01/31 08:15:52;;;;;;;9.50;3.80;;;;;;;19.84;35.18;101934.25;5105461;28;20046;-57
2023/01/31 08:18:17;;;;;;;10.93;3.92;;;;;;;19.88;35.07;101928.38;5102958;28;20377;-54
2023/01/31 08:20:42;;;;;;;13.05;4.38;;;;;;;19.88;34.86;101924.81;5104550;28;20018;-56
2023/01/31 08:23:08;;;;;;;11.55;4.07;;;;;;;19.90;35.10;101930.94;5105177;28;20500;-58
2023/01/31 08:25:33;;;;;;;12.52;4.65;;;;;;;19.90;35.03;101928.22;5104804;28;20043;-56
2023/01/31 08:27:59;;;;;;;10.13;4.13;;;;;;;19.90;34.95;101926.38;5105385;28;20483;-57
2023/01/31 08:30:24;;;;;;;12.52;4.25;;;;;;;19.90;35.00;101925.53;5105069;28;20024;-56
2023/01/31 08:32:49;;;;;;;9.05;4.05;;;;;;;19.91;34.77;101928.06;5105041;28;20027;-57
2023/01/31 08:35:15;;;;;;;10.55;3.67;;;;;;;19.91;34.66;101924.53;5104273;28;20020;-56
2023/01/31 08:37:40;;;;;;;11.68;4.40;;;;;;;19.91;34.95;101925.38;5105102;28;20084;-56
2023/01/31 08:40:06;;;;;;;11.00;4.38;;;;;;;19.93;34.61;101934.19;5104368;28;20102;-56
2023/01/31 08:42:31;;;;;;;9.43;4.30;;;;;;;19.95;34.55;101920.53;5104916;28;20020;-56
2023/01/31 08:44:57;;;;;;;9.48;3.60;;;;;;;19.96;34.94;101915.00;5104649;28;20039;-57
2023/01/31 08:47:22;;;;;;;9.18;3.60;;;;;;;19.98;34.67;101912.13;5105119;28;20028;-56
2023/01/31 08:49:47;;;;;;;9.68;4.70;;;;;;;19.99;34.94;101911.13;5104940;28;20024;-55
2023/01/31 08:52:12;;;;;;;10.18;4.47;;;;;;;20.01;34.91;101895.63;5104063;28;20115;-55
2023/01/31 08:54:38;;;;;;;10.63;3.60;;;;;;;20.03;34.83;101898.19;5104765;28;20028;-56
2023/01/31 08:57:03;;;;;;;10.02;3.80;;;;;;;20.03;34.80;101904.41;5105192;28;20035;-56
2023/01/31 08:59:28;;;;;;;10.30;4.38;;;;;;;20.06;34.77;101890.63;5105195;28;20060;-57
2023/01/31 09:01:54;;;;;;;11.90;3.50;;;;;;;20.08;34.65;101890.47;5105167;28;20073;-57
2023/01/31 09:04:19;;;;;;;8.18;3.55;;;;;;;20.11;34.74;101877.50;5104417;28;20448;-57
2023/01/31 09:06:44;;;;;;;12.50;4.35;;;;;;;20.13;34.80;101877.34;5104745;28;20110;-57
2023/01/31 09:09:10;;;;;;;12.30;4.28;;;;;;;20.11;34.51;101879.38;5101131;28;20088;-56
2023/01/31 09:11:35;;;;;;;8.88;3.70;;;;;;;20.12;34.69;101875.66;5103559;28;20503;-53
2023/01/31 09:14:00;;;;;;;11.90;4.47;;;;;;;20.11;34.83;101879.38;5103593;28;20035;-54
2023/01/31 09:16:26;;;;;;;8.90;3.55;;;;;;;20.10;34.57;101889.31;5103824;28;20012;-53
2023/01/31 09:18:52;;;;;;;9.90;4.03;;;;;;;20.10;34.73;101892.03;5104255;28;20024;-52
2023/01/31 09:21:20;;;;;;;8.93;3.58;;;;;;;20.10;34.63;101901.97;5106323;28;20028;-50
2023/01/31 09:23:46;;;;;;;11.90;4.40;;;;;;;20.09;34.89;101905.66;5101260;28;20031;-55
2023/01/31 09:26:11;;;;;;;10.43;4.32;;;;;;;20.11;34.76;101911.75;5102767;28;20020;-54
2023/01/31 09:28:37;;;;;;;10.65;4.65;;;;;;;20.11;35.00;101899.13;5104316;28;20705;-56
2023/01/31 09:31:04;;;;;;;8.85;3.60;;;;;;;20.11;35.29;101907.22;5103781;28;20031;-57
2023/01/31 09:33:32;;;;;;;10.80;4.57;;;;;;;20.12;34.85;101913.47;5100223;28;20043;-56
2023/01/31 09:36:05;;;;;;;8.15;4.00;;;;;;;20.13;34.82;101898.94;5102677;28;20072;-56
2023/01/31 09:38:31;;;;;;;8.35;3.97;;;;;;;20.11;34.91;101885.59;5104088;28;20061;-56
2023/01/31 09:40:59;;;;;;;11.63;3.70;;;;;;;20.08;35.06;101868.88;5101743;28;20020;-56
2023/01/31 09:43:29;;;;;;;10.63;3.70;;;;;;;20.15;35.23;101876.22;5099995;28;20130;-57
2023/01/31 09:45:57;;;;;;;10.77;3.88;;;;;;;20.16;35.36;101875.19;5101397;28;20449;-55
2023/01/31 09:48:27;;;;;;;9.80;3.50;;;;;;;20.16;35.25;101871.66;5119886;28;20034;-52
2023/01/31 09:50:54;;;;;;;10.35;3.72;;;;;;;20.19;35.20;101874.91;5102144;28;20073;-55
2023/01/31 09:53:22;;;;;;;8.55;3.78;;;;;;;20.18;35.17;101870.50;5104380;28;20028;-53
2023/01/31 09:55:56;;;;;;;9.32;3.40;;;;;;;20.22;34.77;101865.66;5102923;28;20031;-57
2023/01/31 09:58:36;;;;;;;6.95;3.50;;;;;;;20.22;35.04;101865.66;5103747;28;20044;-54
2023/01/31 10:01:10;;;;;;;9.05;3.70;;;;;;;20.25;34.86;101859.06;5103359;28;20028;-52
2023/01/31 10:03:36;;;;;;;7.93;3.42;;;;;;;20.26;35.00;101855.38;5114200;28;20042;-56
2023/01/31 10:06:19;;;;;;;9.70;4.03;;;;;;;20.29;34.84;101863.16;5108763;28;20028;-56
2023/01/31 10:09:05;;;;;;;11.45;3.25;;;;;;;20.28;35.20;101866.88;5107388;28;20037;-55
2023/01/31 10:11:38;;;;;;;7.90;3.50;;;;;;;20.30;34.60;101868.41;5123809;28;20470;-55
2023/01/31 10:14:30;;;;;;;7.05;2.92;;;;;;;20.30;35.00;101856.75;5112620;28;20031;-55
2023/01/31 10:17:04;;;;;;;7.28;2.90;;;;;;;20.30;34.80;101835.16;5102946;28;20024;-57
2023/01/31 10:19:53;;;;;;;9.88;3.42;;;;;;;20.33;34.78;101838.38;5101357;28;20025;-55
2023/01/31 10:22:26;;;;;;;9.45;3.33;;;;;;;20.33;35.12;101835.69;5109830;28;20039;-57
2023/01/31 10:24:56;;;;;;;8.50;3.00;;;;;;;20.32;34.84;101841.25;5107145;28;20137;-54
2023/01/31 10:27:39;;;;;;;9.10;3.50;;;;;;;20.36;34.57;101835.38;5098095;28;20031;-52
2023/01/31 10:30:14;;;;;;;8.85;3.38;;;;;;;20.33;34.73;101833.00;5109283;27;20050;-54
2023/01/31 10:32:45;;;;;;;10.40;3.67;;;;;;;20.40;34.88;101844.88;5085370;28;20021;-55
2023/01/31 10:35:19;;;;;;;7.50;2.90;;;;;;;20.30;34.63;101830.59;5103660;28;20047;-55
2023/01/31 10:37:58;;;;;;;7.05;2.80;;;;;;;20.42;34.81;101839.31;5107352;28;20075;-51
2023/01/31 10:40:35;;;;;;;7.07;3.28;;;;;;;20.45;34.85;101836.31;5105588;28;20091;-51
2023/01/31 10:43:10;;;;;;;6.90;2.90;;;;;;;20.47;34.77;101834.28;5106158;28;20031;-54
2023/01/31 10:45:37;;;;;;;6.32;3.50;;;;;;;20.47;34.95;101831.56;5107772;28;20389;-55
2023/01/31 10:48:13;;;;;;;9.80;3.65;;;;;;;20.49;34.64;101835.03;5107934;28;20032;-56
2023/01/31 10:50:58;;;;;;;5.82;2.90;;;;;;;20.52;35.07;101836.53;5107094;28;20632;-53
2023/01/31 10:53:50;;;;;;;8.25;2.72;;;;;;;20.54;34.96;101831.84;5107721;28;20450;-52
2023/01/31 10:56:27;;;;;;;7.32;2.70;;;;;;;20.54;34.65;101827.28;5103774;28;20028;-57
2023/01/31 10:58:52;;;;;;;7.18;3.25;;;;;;;20.57;34.86;101823.44;5107533;28;20032;-56
2023/01/31 11:01:18;;;;;;;8.18;3.42;;;;;;;20.58;34.99;101819.72;5120871;28;20039;-56
2023/01/31 11:03:49;;;;;;;6.07;2.70;;;;;;;20.59;34.68;101830.34;5104966;28;20381;-55
2023/01/31 11:06:15;;;;;;;7.45;2.80;;;;;;;20.60;34.63;101833.91;5107115;28;20026;-53
2023/01/31 11:08:49;;;;;;;8.25;2.70;;;;;;;20.62;34.53;101831.91;5107096;28;20055;-53
2023/01/31 11:11:17;;;;;;;7.60;2.55;;;;;;;20.65;34.83;101837.00;5122155;28;20035;-55
2023/01/31 11:13:54;;;;;;;5.65;2.85;;;;;;;20.64;34.78;101836.13;5105561;28;20111;-50
2023/01/31 11:16:19;;;;;;;8.40;3.25;;;;;;;20.57;34.85;101818.03;5105448;28;20036;-53
2023/01/31 11:18:47;;;;;;;8.57;2.70;;;;;;;20.66;34.87;101831.44;5106923;28;20032;-55
2023/01/31 11:21:30;;;;;;;7.20;2.78;;;;;;;20.67;34.51;101827.72;5105613;28;20020;-52
2023/01/31 11:24:14;;;;;;;7.70;2.45;;;;;;;20.54;34.74;101805.66;5105411;28;20069;-52
2023/01/31 11:26:47;;;;;;;6.10;2.80;;;;;;;20.59;34.66;101818.69;5106388;28;20031;-56
2023/01/31 11:29:28;;;;;;;8.27;3.00;;;;;;;20.67;35.02;101825.00;5106919;28;20056;-53
2023/01/31 11:31:55;;;;;;;5.22;2.75;;;;;;;20.69;34.88;101819.47;5106363;28;20020;-52
2023/01/31 11:34:32;;;;;;;5.45;2.67;;;;;;;20.72;34.80;101819.13;5104974;28;20054;-54
2023/01/31 11:37:24;;;;;;;8.63;2.55;;;;;;;20.76;34.94;101811.56;5106576;28;20067;-58
2023/01/31 11:39:55;;;;;;;7.00;2.35;;;;;;;20.80;34.91;101800.28;5102332;28;20085;-50
2023/01/31 11:42:20;;;;;;;6.43;2.53;;;;;;;20.81;34.66;101798.41;5106563;28;20032;-57